Time;durP1;ratioP1;P1;durP2;ratioP2;P2;SDS_P1;SDS_P2;PMS_P1;PMS_P2;Temp;Humidity;BMP_temperature;BMP_pressure;BME280_temperature;BME280_humidity;BME280_pressure;Samples;Min_cycle;Max_cycle;Signal;HPM_P1;HPM_P2
2023/01/19 00:01:19;;;;;;;7.10;3.97;;;;;;;7.77;59.61;98070.25;4295978;33;20100;-96
2023/01/19 00:03:44;;;;;;;5.68;3.40;;;;;;;7.79;59.61;98071.00;4307585;33;20124;-96
2023/01/19 00:06:10;;;;;;;5.75;3.42;;;;;;;7.75;59.61;98076.41;4308361;33;20152;-96
2023/01/19 00:08:36;;;;;;;5.57;2.87;;;;;;;7.88;59.62;98074.94;4308772;33;20839;-96
2023/01/19 00:11:01;;;;;;;4.60;2.90;;;;;;;7.94;59.62;98066.84;4309195;33;20170;-96
2023/01/19 00:13:27;;;;;;;4.15;2.30;;;;;;;7.96;59.62;98065.03;4296682;33;20111;-96
2023/01/19 00:15:52;;;;;;;3.67;2.20;;;;;;;7.98;59.62;98068.38;4308272;33;20104;-96
2023/01/19 00:18:18;;;;;;;3.83;2.12;;;;;;;8.10;59.63;98069.56;4297233;33;20138;-96
2023/01/19 00:20:44;;;;;;;4.53;2.47;;;;;;;7.97;59.62;98070.13;4312467;33;20143;-96
2023/01/19 00:23:10;;;;;;;5.28;2.72;;;;;;;8.27;59.64;98066.94;4313473;33;20495;-96
2023/01/19 00:25:41;;;;;;;3.70;2.30;;;;;;;8.27;59.64;98065.19;4312175;33;20075;-96
2023/01/19 00:28:07;;;;;;;6.72;3.20;;;;;;;8.32;59.64;98060.66;4312064;33;20122;-96
2023/01/19 00:30:32;;;;;;;4.82;2.87;;;;;;;8.36;59.64;98058.78;4306853;33;20100;-96
2023/01/19 00:32:58;;;;;;;6.87;3.40;;;;;;;8.33;59.64;98056.31;4296161;33;20108;-96
2023/01/19 00:35:23;;;;;;;4.85;3.15;;;;;;;8.31;59.64;98056.38;4305406;33;20112;-96
2023/01/19 00:37:49;;;;;;;5.72;3.05;;;;;;;8.26;59.64;98057.50;4307098;33;20115;-96
2023/01/19 00:40:14;;;;;;;4.93;3.00;;;;;;;8.23;59.64;98062.84;4308116;33;20088;-96
2023/01/19 00:42:40;;;;;;;5.32;3.20;;;;;;;8.11;59.63;98059.13;4304055;33;20104;-96
2023/01/19 00:45:13;;;;;;;5.60;3.55;;;;;;;8.13;59.63;98053.84;4296206;33;20366;-96
2023/01/19 00:47:38;;;;;;;5.30;3.25;;;;;;;8.04;59.62;98068.06;4308420;33;20158;-96
2023/01/19 00:50:05;;;;;;;5.12;2.78;;;;;;;7.96;59.62;98054.66;4307827;33;20088;-95
2023/01/19 00:52:31;;;;;;;4.93;3.05;;;;;;;7.89;59.62;98051.53;4301258;33;20084;-96
2023/01/19 00:54:56;;;;;;;4.18;2.60;;;;;;;7.74;59.61;98051.44;4308687;33;20109;-96
2023/01/19 00:57:22;;;;;;;4.93;2.70;;;;;;;7.84;59.62;98052.69;4308379;33;20561;-96
2023/01/19 00:59:47;;;;;;;6.10;2.50;;;;;;;7.80;59.61;98056.31;4308229;33;20099;-96
2023/01/19 01:02:13;;;;;;;3.37;1.80;;;;;;;7.95;59.62;98061.59;4297255;33;20111;-95
2023/01/19 01:04:38;;;;;;;4.07;2.40;;;;;;;7.93;59.62;98052.22;4307277;33;20112;-94
2023/01/19 01:07:04;;;;;;;2.60;1.95;;;;;;;7.84;59.62;98058.69;4295750;33;20123;-96
2023/01/19 01:09:29;;;;;;;3.45;1.87;;;;;;;7.97;59.62;98051.16;4301617;33;20103;-93
2023/01/19 01:11:55;;;;;;;2.67;1.40;;;;;;;7.93;59.62;98057.41;4298463;33;20139;-95
2023/01/19 01:14:21;;;;;;;2.83;1.70;;;;;;;7.87;59.62;98060.31;4307411;33;20108;-95
2023/01/19 01:16:46;;;;;;;2.22;1.33;;;;;;;7.84;59.62;98057.87;4307094;33;20277;-94
2023/01/19 01:19:12;;;;;;;2.83;1.55;;;;;;;7.85;59.62;98072.50;4307673;33;20575;-94
2023/01/19 01:21:37;;;;;;;3.12;1.45;;;;;;;7.88;59.61;98070.59;4299182;33;20097;-92
2023/01/19 01:24:03;;;;;;;1.98;1.40;;;;;;;7.83;59.61;98071.72;4307701;33;20167;-94
2023/01/19 01:26:28;;;;;;;2.37;1.62;;;;;;;7.78;59.61;98068.50;4307419;33;20132;-93
2023/01/19 01:28:54;;;;;;;2.72;1.65;;;;;;;7.94;59.62;98064.25;4310956;33;20092;-95
2023/01/19 01:31:19;;;;;;;2.33;1.60;;;;;;;7.84;59.62;98063.88;4308141;33;20108;-95
2023/01/19 01:33:45;;;;;;;2.12;1.10;;;;;;;7.78;59.61;98065.91;4307468;33;20152;-95
2023/01/19 01:36:10;;;;;;;1.95;0.93;;;;;;;7.71;59.61;98067.94;4308004;33;20127;-96
2023/01/19 01:38:37;;;;;;;2.05;1.20;;;;;;;7.57;59.60;98078.09;4297978;33;20339;-95
2023/01/19 01:41:03;;;;;;;1.37;0.77;;;;;;;7.51;59.60;98078.41;4295417;33;20772;-96
2023/01/19 01:44:03;;;;;;;0.95;0.68;;;;;;;7.60;59.60;98078.81;4307935;33;20112;-95
2023/01/19 01:46:29;;;;;;;3.08;0.60;;;;;;;7.39;59.58;98090.16;4288741;33;20087;-96
2023/01/19 01:49:04;;;;;;;1.00;0.60;;;;;;;7.25;59.59;98085.59;4317337;33;20100;-96
2023/01/19 01:51:49;;;;;;;0.35;0.30;;;;;;;7.24;59.58;98085.69;4321360;33;20100;-96
2023/01/19 01:54:30;;;;;;;1.02;0.40;;;;;;;7.29;59.58;98094.06;4308220;33;20168;-95
2023/01/19 01:56:58;;;;;;;1.52;0.70;;;;;;;7.06;59.57;98111.44;4296579;33;20100;-96
2023/01/19 01:59:37;;;;;;;0.88;0.55;;;;;;;7.13;59.57;98109.47;4296707;33;20758;-96
2023/01/19 02:05:11;;;;;;;2.43;0.50;;;;;;;7.31;59.58;98118.13;4310608;33;20172;-96
2023/01/19 02:13:42;;;;;;;0.85;0.55;;;;;;;7.14;59.58;98115.47;4300569;33;20120;-95
2023/01/19 02:16:08;;;;;;;0.30;0.30;;;;;;;6.90;59.56;98105.28;4308408;33;20112;-95
2023/01/19 02:18:34;;;;;;;0.77;0.35;;;;;;;6.67;59.55;98064.91;4312274;33;20812;-95
2023/01/19 02:21:22;;;;;;;0.98;0.50;;;;;;;6.53;59.54;98061.22;4311148;33;20092;-96
2023/01/19 02:23:49;;;;;;;0.77;0.60;;;;;;;6.49;59.53;98065.69;4315972;33;20100;-95
2023/01/19 02:26:34;;;;;;;0.60;0.40;;;;;;;6.54;59.54;98086.16;4323114;33;20112;-94
2023/01/19 02:29:03;;;;;;;0.50;0.30;;;;;;;6.39;59.53;98095.41;4326994;33;20107;-94
2023/01/19 02:31:29;;;;;;;0.93;0.40;;;;;;;6.52;59.54;98121.59;4314640;33;20137;-95
2023/01/19 02:33:55;;;;;;;1.08;0.50;;;;;;;6.49;59.54;98121.72;4302825;33;20092;-96
2023/01/19 02:36:24;;;;;;;1.65;0.60;;;;;;;6.53;59.54;98125.84;4302116;33;20080;-95
2023/01/19 02:38:54;;;;;;;0.55;0.40;;;;;;;6.63;59.54;98104.72;4328005;33;20123;-96
2023/01/19 02:41:22;;;;;;;0.50;0.32;;;;;;;6.72;59.56;98091.41;4308322;33;20097;-96
2023/01/19 02:43:48;;;;;;;0.30;0.30;;;;;;;6.63;59.54;98086.63;4315130;33;20076;-95
2023/01/19 02:46:17;;;;;;;0.80;0.40;;;;;;;6.49;59.54;98082.94;4303490;33;20112;-94
2023/01/19 02:48:43;;;;;;;0.75;0.35;;;;;;;6.50;59.54;98080.28;4315649;33;20112;-94
2023/01/19 02:51:26;;;;;;;0.47;0.22;;;;;;;6.55;59.54;98077.50;4328309;33;20093;-95
2023/01/19 02:54:03;;;;;;;0.70;0.30;;;;;;;6.40;59.53;98090.19;4299744;33;20077;-94
2023/01/19 02:56:45;;;;;;;0.52;0.22;;;;;;;6.43;59.54;98084.88;4317166;33;20127;-95
2023/01/19 02:59:36;;;;;;;0.70;0.30;;;;;;;6.54;59.54;98093.91;4314322;33;20135;-96
2023/01/19 03:02:32;;;;;;;1.20;0.32;;;;;;;6.46;59.54;98097.69;4331942;33;20064;-95
2023/01/19 03:05:35;;;;;;;0.50;0.20;;;;;;;6.57;59.54;98096.37;4330255;33;20187;-96
2023/01/19 03:08:19;;;;;;;0.77;0.30;;;;;;;6.52;59.54;98100.91;4305801;33;20140;-96
2023/01/19 03:11:04;;;;;;;1.67;0.20;;;;;;;6.62;59.54;98091.84;4310808;33;20112;-96
2023/01/19 03:13:50;;;;;;;0.95;0.28;;;;;;;6.76;59.55;98097.28;4316220;33;20092;-96
2023/01/19 03:16:35;;;;;;;0.37;0.20;;;;;;;6.72;59.56;98119.84;4309605;33;20743;-96
2023/01/19 03:19:28;;;;;;;0.60;0.10;;;;;;;6.91;59.56;98121.66;4325349;33;20090;-94
2023/01/19 03:21:59;;;;;;;0.50;0.20;;;;;;;6.97;59.57;98135.16;4328871;33;20137;-95
2023/01/19 03:24:27;;;;;;;0.28;0.20;;;;;;;6.90;59.56;98131.16;4328292;33;20060;-95
2023/01/19 03:26:58;;;;;;;0.85;0.20;;;;;;;6.85;59.56;98130.47;4302279;33;20090;-96
2023/01/19 03:29:24;;;;;;;0.43;0.20;;;;;;;7.04;59.57;98089.16;4316187;33;20088;-96
2023/01/19 03:31:49;;;;;;;0.70;0.20;;;;;;;7.08;59.57;98065.66;4302461;33;20167;-95
2023/01/19 03:34:15;;;;;;;0.70;0.28;;;;;;;7.18;59.58;98052.31;4315225;33;20096;-95
2023/01/19 03:36:46;;;;;;;0.30;0.20;;;;;;;6.96;59.57;98055.88;4298988;33;20442;-96
2023/01/19 03:39:27;;;;;;;0.47;0.30;;;;;;;6.91;59.56;98056.97;4315610;33;20069;-95
2023/01/19 03:42:09;;;;;;;0.82;0.40;;;;;;;6.78;59.55;98054.94;4328464;33;20084;-96
2023/01/19 03:44:39;;;;;;;4.35;0.30;;;;;;;6.71;59.55;98039.75;4315872;33;20171;-96
2023/01/19 03:47:07;;;;;;;0.80;0.20;;;;;;;6.39;59.53;98034.22;4316329;33;20490;-96
2023/01/19 03:49:43;;;;;;;0.93;0.30;;;;;;;6.30;59.53;98039.78;4316835;33;20101;-96
2023/01/19 03:52:11;;;;;;;1.20;0.17;;;;;;;6.29;59.53;98042.41;4328327;33;20072;-96
2023/01/19 03:54:37;;;;;;;1.15;0.40;;;;;;;6.43;59.54;98051.28;4312130;33;21060;-96
2023/01/19 03:57:03;;;;;;;1.35;0.70;;;;;;;6.40;59.53;98042.81;4311965;33;20109;-96
2023/01/19 03:59:30;;;;;;;1.92;0.93;;;;;;;6.45;59.54;98054.66;4310906;33;20088;-96
2023/01/19 04:01:55;;;;;;;0.82;0.60;;;;;;;6.46;59.54;98077.00;4309800;33;20158;-96
2023/01/19 04:04:21;;;;;;;1.00;0.68;;;;;;;6.64;59.54;98097.81;4309256;33;20137;-96
2023/01/19 04:06:46;;;;;;;1.12;0.90;;;;;;;6.46;59.54;98115.75;4309269;33;20148;-95
2023/01/19 04:09:12;;;;;;;1.52;1.00;;;;;;;6.61;59.55;98114.25;4299429;33;20108;-95
2023/01/19 04:11:39;;;;;;;1.73;1.20;;;;;;;6.35;59.54;98101.59;4311712;33;20080;-96
2023/01/19 04:14:06;;;;;;;1.77;0.98;;;;;;;6.39;59.53;98114.34;4299105;33;20463;-95
2023/01/19 04:16:31;;;;;;;2.47;1.30;;;;;;;6.31;59.53;98123.28;4313428;33;20056;-95
2023/01/19 04:18:57;;;;;;;4.15;1.00;;;;;;;6.24;59.53;98117.53;4309130;33;20135;-95
2023/01/19 04:21:23;;;;;;;1.58;1.00;;;;;;;6.30;59.53;98117.28;4321753;33;20095;-95
2023/01/19 04:23:49;;;;;;;1.55;1.00;;;;;;;6.05;59.51;98109.69;4322029;33;20108;-96
2023/01/19 04:26:14;;;;;;;2.05;1.10;;;;;;;6.05;59.51;98101.09;4310470;33;20104;-95
2023/01/19 04:28:41;;;;;;;2.25;1.10;;;;;;;5.96;59.51;98088.56;4310371;33;20160;-96
2023/01/19 04:31:07;;;;;;;1.05;0.70;;;;;;;5.94;59.51;98080.03;4310160;33;20746;-96
2023/01/19 04:33:33;;;;;;;1.17;0.70;;;;;;;5.80;59.50;98081.37;4298985;33;20537;-95
2023/01/19 04:36:02;;;;;;;1.30;0.62;;;;;;;6.07;59.52;98089.81;4299454;33;20152;-95
2023/01/19 04:38:33;;;;;;;1.37;0.37;;;;;;;5.75;59.49;98078.16;4315143;33;20135;-96
2023/01/19 04:41:03;;;;;;;0.95;0.45;;;;;;;5.86;59.50;98077.72;4326222;33;20072;-96
2023/01/19 04:43:31;;;;;;;0.60;0.20;;;;;;;5.72;59.49;98065.37;4315746;33;20082;-96
2023/01/19 04:45:58;;;;;;;0.90;0.30;;;;;;;5.62;59.49;98071.78;4316896;33;20083;-95
2023/01/19 04:48:26;;;;;;;0.60;0.50;;;;;;;5.46;59.48;98075.88;4322039;33;20077;-94
2023/01/19 04:50:52;;;;;;;0.52;0.30;;;;;;;5.60;59.48;98072.72;4309997;33;20103;-96
2023/01/19 04:53:18;;;;;;;0.47;0.20;;;;;;;5.70;59.50;98100.72;4301453;33;20091;-96
2023/01/19 04:55:43;;;;;;;1.75;0.32;;;;;;;5.84;59.51;98105.34;4312930;33;20464;-96
2023/01/19 04:58:09;;;;;;;1.02;0.57;;;;;;;5.74;59.49;98097.13;4309725;33;20169;-95
2023/01/19 05:00:36;;;;;;;0.80;0.50;;;;;;;5.55;59.49;98106.47;4310873;33;20100;-95
2023/01/19 05:03:11;;;;;;;1.48;1.00;;;;;;;5.57;59.49;98109.81;4317693;33;20087;-96
2023/01/19 05:05:59;;;;;;;1.25;0.65;;;;;;;5.65;59.49;98101.78;4331916;33;20052;-96
2023/01/19 05:08:32;;;;;;;1.05;0.60;;;;;;;5.55;59.49;98104.72;4330494;33;20056;-96
2023/01/19 05:10:58;;;;;;;0.77;0.43;;;;;;;5.36;59.47;98097.72;4327426;33;20096;-96
2023/01/19 05:13:30;;;;;;;1.08;0.60;;;;;;;5.43;59.48;98092.28;4318718;33;20078;-96
2023/01/19 05:16:08;;;;;;;0.35;0.32;;;;;;;5.37;59.47;98096.84;4318622;33;20111;-96
2023/01/19 05:18:49;;;;;;;0.77;0.70;;;;;;;5.34;59.47;98113.28;4312038;33;20148;-96
2023/01/19 05:21:15;;;;;;;1.85;0.50;;;;;;;5.38;59.47;98134.63;4308955;33;20163;-94
2023/01/19 05:23:40;;;;;;;0.17;0.15;;;;;;;5.35;59.47;98139.91;4296811;33;20107;-96
2023/01/19 05:26:06;;;;;;;0.50;0.30;;;;;;;5.43;59.48;98156.78;4296915;33;20112;-95
2023/01/19 05:28:31;;;;;;;0.70;0.30;;;;;;;5.63;59.49;98163.78;4296037;33;20142;-94
2023/01/19 05:30:57;;;;;;;0.90;0.20;;;;;;;5.62;59.49;98162.09;4295351;33;20147;-93
2023/01/19 05:33:23;;;;;;;3.20;0.50;;;;;;;5.68;59.49;98171.34;4307516;33;20228;-93
2023/01/19 05:35:49;;;;;;;1.05;0.65;;;;;;;5.83;59.50;98163.03;4295720;33;20156;-95
2023/01/19 05:38:14;;;;;;;0.73;0.30;;;;;;;5.96;59.51;98158.28;4295734;33;20092;-94
2023/01/19 05:40:40;;;;;;;0.62;0.30;;;;;;;5.69;59.50;98153.25;4295866;33;20454;-94
2023/01/19 05:43:05;;;;;;;0.80;0.40;;;;;;;5.81;59.50;98152.78;4298873;33;20115;-93
2023/01/19 05:45:31;;;;;;;2.37;0.30;;;;;;;6.10;59.52;98149.09;4313825;33;20171;-94
2023/01/19 05:47:56;;;;;;;0.40;0.40;;;;;;;5.91;59.52;98144.69;4298160;33;20112;-94
2023/01/19 05:50:22;;;;;;;2.17;0.68;;;;;;;6.17;59.52;98139.38;4287154;33;20176;-94
2023/01/19 05:52:47;;;;;;;3.05;0.70;;;;;;;6.26;59.52;98140.75;4309601;33;20072;-94
2023/01/19 05:55:13;;;;;;;1.62;0.77;;;;;;;6.21;59.53;98142.66;4308205;33;20156;-94
2023/01/19 05:57:39;;;;;;;1.62;1.02;;;;;;;5.90;59.50;98135.28;4308319;33;20139;-95
2023/01/19 06:00:05;;;;;;;1.58;0.82;;;;;;;5.76;59.51;98126.31;4308186;33;20112;-93
2023/01/19 06:02:30;;;;;;;1.83;0.98;;;;;;;5.83;59.50;98119.16;4308289;33;20118;-94
2023/01/19 06:04:56;;;;;;;1.80;1.17;;;;;;;5.68;59.50;98128.34;4307977;33;20136;-94
2023/01/19 06:07:21;;;;;;;2.45;1.02;;;;;;;5.51;59.48;98138.47;4308811;33;20446;-94
2023/01/19 06:09:47;;;;;;;1.40;1.05;;;;;;;5.47;59.48;98132.56;4308305;33;20167;-93
2023/01/19 06:12:12;;;;;;;2.25;1.27;;;;;;;5.34;59.48;98135.66;4308225;33;20139;-94
2023/01/19 06:14:39;;;;;;;2.00;1.40;;;;;;;5.45;59.48;98113.72;4307264;33;20378;-92
2023/01/19 06:17:05;;;;;;;2.47;1.25;;;;;;;5.42;59.48;98116.41;4307555;33;20160;-93
2023/01/19 06:19:31;;;;;;;2.58;1.25;;;;;;;5.32;59.48;98114.22;4295496;33;20111;-93
2023/01/19 06:21:57;;;;;;;2.20;1.35;;;;;;;5.30;59.47;98100.53;4307632;33;20126;-94
2023/01/19 06:24:24;;;;;;;2.30;1.02;;;;;;;5.07;59.46;98088.50;4295600;33;20132;-94
2023/01/19 06:26:49;;;;;;;2.05;1.40;;;;;;;5.05;59.46;98077.41;4311214;33;20117;-94
2023/01/19 06:29:15;;;;;;;3.47;1.90;;;;;;;5.15;59.46;98079.56;4307655;33;20096;-93
2023/01/19 06:31:40;;;;;;;3.53;2.30;;;;;;;5.11;59.46;98084.91;4307301;33;20116;-94
2023/01/19 06:34:06;;;;;;;3.97;2.00;;;;;;;5.15;59.46;98087.31;4307876;33;20362;-92
2023/01/19 06:36:31;;;;;;;4.43;2.62;;;;;;;5.11;59.46;98110.69;4298744;33;20117;-93
2023/01/19 06:38:57;;;;;;;6.03;3.17;;;;;;;5.00;59.45;98123.16;4307245;33;20100;-93
2023/01/19 06:41:23;;;;;;;4.87;2.97;;;;;;;4.96;59.45;98131.84;4307515;33;20151;-94
2023/01/19 06:43:48;;;;;;;6.15;3.37;;;;;;;5.15;59.46;98127.72;4307030;33;20115;-92
2023/01/19 06:46:13;;;;;;;6.05;3.83;;;;;;;5.07;59.46;98145.22;4307157;33;20105;-93
2023/01/19 06:48:39;;;;;;;7.60;3.95;;;;;;;5.05;59.46;98147.88;4307070;33;20107;-94
2023/01/19 06:51:05;;;;;;;8.30;4.78;;;;;;;5.06;59.46;98139.22;4295346;33;20096;-93
2023/01/19 06:53:31;;;;;;;11.20;5.32;;;;;;;5.10;59.47;98134.81;4307164;33;20517;-93
2023/01/19 06:56:00;;;;;;;10.88;5.47;;;;;;;5.14;59.47;98121.72;4295201;33;20112;-93
2023/01/19 06:58:26;;;;;;;9.88;4.75;;;;;;;5.11;59.47;98127.00;4308233;33;20068;-94
2023/01/19 07:00:52;;;;;;;9.23;5.70;;;;;;;5.22;59.46;98124.91;4295835;33;20096;-93
2023/01/19 07:03:21;;;;;;;9.02;5.72;;;;;;;5.05;59.46;98111.75;4309066;33;20115;-92
2023/01/19 07:05:50;;;;;;;10.73;5.75;;;;;;;5.19;59.47;98113.81;4308674;33;20112;-92
2023/01/19 07:08:16;;;;;;;10.40;6.05;;;;;;;5.14;59.47;98116.56;4308463;33;20235;-93
2023/01/19 07:10:41;;;;;;;9.30;5.30;;;;;;;5.30;59.47;98119.44;4308538;33;20175;-93
2023/01/19 07:13:06;;;;;;;9.85;5.75;;;;;;;5.33;59.48;98116.75;4308474;33;20148;-93
2023/01/19 07:15:32;;;;;;;9.82;5.80;;;;;;;5.17;59.47;98123.34;4308482;33;20154;-93
2023/01/19 07:17:58;;;;;;;11.02;6.18;;;;;;;5.35;59.48;98129.59;4308592;33;20109;-93
2023/01/19 07:20:23;;;;;;;11.45;6.07;;;;;;;5.44;59.48;98130.09;4307844;33;20096;-94
2023/01/19 07:22:54;;;;;;;9.77;5.82;;;;;;;5.70;59.50;98138.63;4308592;33;20103;-94
2023/01/19 07:25:19;;;;;;;10.02;5.37;;;;;;;5.78;59.50;98149.47;4308344;33;20755;-94
2023/01/19 07:27:45;;;;;;;10.30;5.72;;;;;;;5.53;59.49;98149.56;4308458;33;20100;-94
2023/01/19 07:30:11;;;;;;;10.88;5.43;;;;;;;5.64;59.49;98156.87;4296496;33;20092;-93
2023/01/19 07:32:37;;;;;;;9.48;5.47;;;;;;;5.81;59.50;98163.09;4308504;33;20377;-94
2023/01/19 07:35:03;;;;;;;11.02;5.45;;;;;;;5.84;59.51;98167.31;4308635;33;20183;-93
2023/01/19 07:37:28;;;;;;;10.05;5.87;;;;;;;5.71;59.50;98166.94;4315191;33;20112;-91
2023/01/19 07:39:54;;;;;;;9.82;5.37;;;;;;;6.08;59.52;98166.38;4305170;33;20135;-92
2023/01/19 07:42:19;;;;;;;10.38;6.25;;;;;;;6.13;59.51;98166.22;4308748;33;20096;-94
2023/01/19 07:44:44;;;;;;;10.68;5.82;;;;;;;6.16;59.52;98168.69;4308375;33;20177;-93
2023/01/19 07:47:11;;;;;;;9.65;5.55;;;;;;;6.13;59.51;98166.22;4308439;33;20109;-94
2023/01/19 07:49:37;;;;;;;10.27;6.22;;;;;;;6.17;59.52;98165.22;4308654;33;20154;-94
2023/01/19 07:52:03;;;;;;;12.13;6.60;;;;;;;6.09;59.52;98174.97;4308342;33;20084;-94
2023/01/19 07:54:28;;;;;;;11.55;6.57;;;;;;;6.14;59.52;98180.81;4296427;33;20131;-94
2023/01/19 07:56:54;;;;;;;11.88;6.62;;;;;;;6.15;59.52;98180.78;4308403;33;20144;-94
2023/01/19 07:59:20;;;;;;;14.50;7.12;;;;;;;6.18;59.52;98187.56;4308384;33;20156;-94
2023/01/19 08:01:45;;;;;;;16.60;7.93;;;;;;;6.24;59.52;98187.31;4308541;33;20459;-93
2023/01/19 08:04:11;;;;;;;14.93;7.68;;;;;;;6.39;59.54;98184.12;4314814;33;20155;-91
2023/01/19 08:06:37;;;;;;;13.98;8.55;;;;;;;6.50;59.54;98188.84;4310334;33;20164;-94
2023/01/19 08:09:04;;;;;;;15.63;8.05;;;;;;;6.52;59.54;98187.03;4296351;33;20127;-94
2023/01/19 08:11:30;;;;;;;18.00;9.65;;;;;;;6.40;59.53;98174.63;4308202;33;20108;-93
2023/01/19 08:13:56;;;;;;;17.58;9.82;;;;;;;6.47;59.54;98170.88;4308327;33;20160;-94
2023/01/19 08:16:21;;;;;;;18.35;9.82;;;;;;;6.38;59.53;98166.06;4308114;33;20112;-93
2023/01/19 08:18:46;;;;;;;21.27;11.00;;;;;;;6.57;59.54;98161.00;4308030;33;20446;-94
2023/01/19 08:21:12;;;;;;;20.00;10.30;;;;;;;6.53;59.54;98160.28;4308417;33;20135;-93
2023/01/19 08:23:37;;;;;;;24.12;12.37;;;;;;;6.54;59.54;98163.72;4308252;33;20156;-93
2023/01/19 08:26:17;;;;;;;24.85;12.63;;;;;;;6.46;59.53;98169.22;4308470;33;20092;-93
2023/01/19 08:28:42;;;;;;;24.67;12.27;;;;;;;6.36;59.53;98153.22;4312356;33;20146;-94
2023/01/19 08:31:08;;;;;;;23.83;13.68;;;;;;;6.28;59.53;98163.03;4302383;33;20111;-94
2023/01/19 08:33:33;;;;;;;25.00;12.77;;;;;;;6.33;59.53;98162.84;4310672;33;20382;-94
2023/01/19 08:35:59;;;;;;;23.92;12.45;;;;;;;6.29;59.53;98169.88;4295877;33;20103;-93
2023/01/19 08:38:24;;;;;;;23.38;12.35;;;;;;;6.39;59.53;98178.13;4295528;33;20095;-94
2023/01/19 08:40:49;;;;;;;21.37;12.37;;;;;;;6.20;59.53;98180.59;4307581;33;20395;-93
2023/01/19 08:43:15;;;;;;;21.33;11.90;;;;;;;6.18;59.52;98192.72;4307486;33;20112;-93
2023/01/19 08:45:46;;;;;;;24.67;12.82;;;;;;;6.18;59.52;98184.97;4307600;33;20104;-94
2023/01/19 08:48:12;;;;;;;23.77;12.27;;;;;;;6.12;59.51;98182.59;4307636;33;20135;-94
2023/01/19 08:50:38;;;;;;;24.35;12.18;;;;;;;6.21;59.53;98178.84;4307737;33;20096;-94
2023/01/19 08:53:05;;;;;;;25.33;12.75;;;;;;;6.13;59.53;98184.28;4307594;33;20499;-94
2023/01/19 08:55:32;;;;;;;22.80;12.93;;;;;;;6.11;59.51;98184.34;4295627;33;20100;-95
2023/01/19 08:57:58;;;;;;;21.23;11.73;;;;;;;6.22;59.53;98177.94;4295607;33;20524;-93
2023/01/19 09:00:24;;;;;;;21.60;11.93;;;;;;;5.99;59.51;98184.00;4307382;33;20116;-94
2023/01/19 09:02:50;;;;;;;20.92;12.75;;;;;;;6.14;59.52;98181.66;4307529;33;20112;-94
2023/01/19 09:05:15;;;;;;;19.62;11.88;;;;;;;6.10;59.52;98179.25;4307438;33;20126;-94
2023/01/19 09:07:43;;;;;;;18.55;11.05;;;;;;;6.13;59.52;98177.38;4307555;33;20100;-94
2023/01/19 09:10:09;;;;;;;19.73;11.20;;;;;;;6.10;59.52;98182.66;4307792;33;20076;-95
2023/01/19 09:12:34;;;;;;;20.40;11.82;;;;;;;6.07;59.52;98179.37;4295782;33;20135;-94
2023/01/19 09:15:00;;;;;;;22.92;12.05;;;;;;;6.08;59.52;98193.97;4307426;33;20143;-93
2023/01/19 09:17:25;;;;;;;24.42;12.43;;;;;;;6.02;59.51;98202.81;4307464;33;20148;-93
2023/01/19 09:19:51;;;;;;;22.23;12.98;;;;;;;5.92;59.51;98203.22;4307509;33;20112;-93
2023/01/19 09:22:16;;;;;;;20.15;12.77;;;;;;;5.72;59.50;98201.34;4306880;33;20172;-93
2023/01/19 09:24:42;;;;;;;19.10;10.80;;;;;;;5.79;59.50;98203.63;4307120;33;20410;-94
2023/01/19 09:27:07;;;;;;;24.52;12.23;;;;;;;5.65;59.49;98192.97;4307309;33;20492;-93
2023/01/19 09:29:32;;;;;;;21.95;11.60;;;;;;;5.58;59.49;98194.09;4295202;33;20143;-93
2023/01/19 09:31:58;;;;;;;19.65;11.40;;;;;;;5.60;59.48;98183.72;4295237;33;20167;-93
2023/01/19 09:34:26;;;;;;;25.10;11.95;;;;;;;5.42;59.48;98177.47;4307323;33;20122;-93
2023/01/19 09:36:51;;;;;;;19.17;11.15;;;;;;;5.53;59.49;98191.69;4307023;33;20088;-94
2023/01/19 09:39:17;;;;;;;22.58;12.10;;;;;;;5.39;59.48;98196.50;4307276;33;20123;-94
2023/01/19 09:41:48;;;;;;;21.35;11.90;;;;;;;5.36;59.48;98198.34;4307921;33;20691;-94
2023/01/19 09:44:21;;;;;;;21.48;11.95;;;;;;;5.39;59.49;98196.50;4310830;33;20081;-93
2023/01/19 09:46:47;;;;;;;25.60;12.65;;;;;;;5.44;59.48;98176.56;4307436;33;20869;-93
2023/01/19 09:49:14;;;;;;;23.50;12.20;;;;;;;5.42;59.48;98188.66;4307320;33;20139;-93
2023/01/19 09:51:42;;;;;;;19.27;10.57;;;;;;;5.24;59.47;98179.00;4307151;33;20131;-93
2023/01/19 09:54:18;;;;;;;22.45;11.55;;;;;;;5.07;59.46;98186.50;4307148;33;20108;-93
2023/01/19 09:56:45;;;;;;;21.27;11.63;;;;;;;4.99;59.46;98189.34;4307002;33;20096;-93
2023/01/19 09:59:29;;;;;;;22.10;12.52;;;;;;;4.99;59.45;98189.34;4307437;33;20112;-94
2023/01/19 10:02:04;;;;;;;22.90;11.15;;;;;;;5.09;59.46;98200.16;4306991;33;20796;-93
2023/01/19 10:04:39;;;;;;;19.77;11.75;;;;;;;5.12;59.46;98207.78;4319155;33;20151;-94
2023/01/19 10:07:24;;;;;;;22.10;12.37;;;;;;;5.16;59.47;98212.78;4306971;33;20167;-93
2023/01/19 10:09:56;;;;;;;21.80;11.18;;;;;;;5.02;59.46;98209.87;4307069;33;20103;-92
2023/01/19 10:12:44;;;;;;;21.80;11.85;;;;;;;4.92;59.45;98206.75;4319156;33;20769;-94
2023/01/19 10:15:13;;;;;;;27.42;13.43;;;;;;;5.06;59.46;98205.44;4306964;33;20112;-94
2023/01/19 10:18:20;;;;;;;24.50;12.55;;;;;;;5.17;59.47;98198.16;4318930;33;20092;-93
2023/01/19 10:20:48;;;;;;;20.08;11.00;;;;;;;5.27;59.47;98201.28;4306854;33;20123;-94
2023/01/19 10:23:38;;;;;;;24.12;12.23;;;;;;;5.07;59.46;98201.97;4306865;33;20130;-93
2023/01/19 10:26:11;;;;;;;21.10;10.77;;;;;;;5.05;59.46;98204.59;4306661;33;20134;-94
2023/01/19 10:28:37;;;;;;;22.25;12.00;;;;;;;5.08;59.45;98214.81;4306923;33;20110;-94
2023/01/19 10:31:05;;;;;;;22.58;11.30;;;;;;;5.13;59.46;98210.31;4306946;33;20115;-93
2023/01/19 10:33:30;;;;;;;22.40;12.05;;;;;;;5.03;59.46;98210.72;4306837;33;20131;-93
2023/01/19 10:35:56;;;;;;;21.62;11.63;;;;;;;5.02;59.46;98209.87;4307814;33;20104;-93
2023/01/19 10:38:22;;;;;;;23.80;11.27;;;;;;;5.11;59.46;98216.44;4308284;33;20109;-93
2023/01/19 10:40:56;;;;;;;25.90;12.27;;;;;;;4.83;59.44;98219.09;4308303;33;20103;-93
2023/01/19 10:43:33;;;;;;;19.65;11.00;;;;;;;4.84;59.44;98231.09;4308361;33;20150;-93
2023/01/19 10:45:59;;;;;;;23.83;11.55;;;;;;;5.09;59.46;98224.22;4308501;33;20135;-94
2023/01/19 10:48:25;;;;;;;21.92;12.55;;;;;;;5.05;59.46;98232.13;4308939;33;20091;-94
2023/01/19 10:51:01;;;;;;;22.58;12.32;;;;;;;4.90;59.45;98230.88;4308963;33;20135;-93
2023/01/19 10:53:26;;;;;;;21.42;11.45;;;;;;;4.89;59.45;98230.06;4308817;33;20165;-94
2023/01/19 10:56:10;;;;;;;23.12;12.00;;;;;;;4.89;59.45;98237.78;4308413;33;20140;-95
2023/01/19 10:58:36;;;;;;;25.67;12.63;;;;;;;4.83;59.44;98240.56;4308776;33;20865;-94
2023/01/19 11:01:24;;;;;;;25.33;12.77;;;;;;;5.06;59.46;98238.97;4296526;33;20148;-93
2023/01/19 11:03:50;;;;;;;24.95;12.82;;;;;;;4.92;59.45;98242.84;4296078;33;20138;-95
2023/01/19 11:06:20;;;;;;;23.65;12.93;;;;;;;4.96;59.45;98241.00;4308212;33;20101;-93
2023/01/19 11:08:47;;;;;;;26.73;13.05;;;;;;;4.99;59.45;98238.34;4308928;33;20111;-93
2023/01/19 11:11:12;;;;;;;23.23;11.93;;;;;;;4.94;59.46;98233.31;4302789;33;20072;-93
2023/01/19 11:13:38;;;;;;;23.02;12.18;;;;;;;5.03;59.46;98231.34;4316825;33;20083;-93
2023/01/19 11:16:33;;;;;;;27.10;13.15;;;;;;;5.07;59.46;98230.34;4319493;33;20085;-92
2023/01/19 11:19:00;;;;;;;21.27;12.57;;;;;;;4.85;59.44;98236.22;4302483;33;20064;-94
2023/01/19 11:21:27;;;;;;;24.27;11.50;;;;;;;4.92;59.45;98229.09;4315333;33;20714;-93
2023/01/19 11:23:56;;;;;;;31.15;15.63;;;;;;;4.69;59.44;98223.88;4309141;33;20116;-93
2023/01/19 11:26:41;;;;;;;26.75;14.30;;;;;;;4.60;59.43;98220.72;4308170;33;20108;-92
2023/01/19 11:29:23;;;;;;;26.15;14.00;;;;;;;4.71;59.43;98222.06;4308418;33;20139;-93
2023/01/19 11:31:49;;;;;;;27.62;13.50;;;;;;;4.75;59.45;98226.25;4308326;33;20151;-93
2023/01/19 11:34:31;;;;;;;25.08;14.02;;;;;;;4.84;59.44;98225.94;4308377;33;20176;-93
2023/01/19 11:36:58;;;;;;;27.70;13.62;;;;;;;4.87;59.46;98231.00;4308696;33;20107;-93
2023/01/19 11:39:26;;;;;;;25.98;13.40;;;;;;;4.80;59.45;98229.53;4308196;33;20158;-94
2023/01/19 11:42:02;;;;;;;28.48;13.90;;;;;;;4.92;59.45;98229.09;4308272;33;20175;-94
2023/01/19 11:44:38;;;;;;;25.60;14.13;;;;;;;4.79;59.45;98233.84;4308185;33;20124;-94
2023/01/19 11:47:11;;;;;;;23.40;13.00;;;;;;;4.97;59.46;98231.53;4307716;33;20174;-94
2023/01/19 11:49:46;;;;;;;25.50;12.63;;;;;;;4.99;59.45;98229.75;4308447;33;20096;-94
2023/01/19 11:52:17;;;;;;;23.65;11.73;;;;;;;4.96;59.45;98233.25;4308082;33;20076;-95
2023/01/19 11:54:51;;;;;;;24.00;12.73;;;;;;;4.92;59.45;98234.25;4320275;33;20135;-93